sensor_id;sensor_type;location;lat;lon;timestamp;P1;durP1;ratioP1;P2;durP2;ratioP2
39968;SDS011;25648;47.808;19.004;2022-11-15T00:00:47;75.13;;;29.67;;
39968;SDS011;25648;47.808;19.004;2022-11-15T00:03:14;69.85;;;30.95;;
39968;SDS011;25648;47.808;19.004;2022-11-15T00:05:40;82.38;;;31.65;;
39968;SDS011;25648;47.808;19.004;2022-11-15T00:08:06;80.22;;;29.08;;
39968;SDS011;25648;47.808;19.004;2022-11-15T00:10:32;74.65;;;30.85;;
39968;SDS011;25648;47.808;19.004;2022-11-15T00:12:58;98.53;;;31.95;;
39968;SDS011;25648;47.808;19.004;2022-11-15T00:15:24;105.53;;;31.45;;
39968;SDS011;25648;47.808;19.004;2022-11-15T00:17:49;84.85;;;31.85;;
39968;SDS011;25648;47.808;19.004;2022-11-15T00:20:16;77.07;;;29.38;;
39968;SDS011;25648;47.808;19.004;2022-11-15T00:22:42;116.95;;;32.60;;
39968;SDS011;25648;47.808;19.004;2022-11-15T00:25:08;101.40;;;33.03;;
39968;SDS011;25648;47.808;19.004;2022-11-15T00:27:33;68.50;;;28.58;;
39968;SDS011;25648;47.808;19.004;2022-11-15T00:30:00;79.15;;;31.02;;
39968;SDS011;25648;47.808;19.004;2022-11-15T00:32:25;87.60;;;29.20;;
39968;SDS011;25648;47.808;19.004;2022-11-15T00:34:51;64.75;;;28.00;;
39968;SDS011;25648;47.808;19.004;2022-11-15T00:37:17;74.03;;;28.88;;
39968;SDS011;25648;47.808;19.004;2022-11-15T00:39:42;75.25;;;28.67;;
39968;SDS011;25648;47.808;19.004;2022-11-15T00:42:08;81.28;;;27.67;;
39968;SDS011;25648;47.808;19.004;2022-11-15T00:44:33;103.63;;;28.98;;
39968;SDS011;25648;47.808;19.004;2022-11-15T00:46:59;59.60;;;27.80;;
39968;SDS011;25648;47.808;19.004;2022-11-15T00:49:25;108.68;;;30.05;;
39968;SDS011;25648;47.808;19.004;2022-11-15T00:51:50;98.90;;;28.35;;
39968;SDS011;25648;47.808;19.004;2022-11-15T00:54:16;83.10;;;27.75;;
39968;SDS011;25648;47.808;19.004;2022-11-15T00:56:41;94.60;;;31.25;;
39968;SDS011;25648;47.808;19.004;2022-11-15T00:59:07;82.22;;;26.73;;
39968;SDS011;25648;47.808;19.004;2022-11-15T01:01:33;84.78;;;27.98;;
39968;SDS011;25648;47.808;19.004;2022-11-15T01:03:58;111.43;;;30.65;;
39968;SDS011;25648;47.808;19.004;2022-11-15T01:06:24;70.72;;;27.73;;
39968;SDS011;25648;47.808;19.004;2022-11-15T01:08:50;64.38;;;27.48;;
39968;SDS011;25648;47.808;19.004;2022-11-15T01:11:15;64.20;;;26.23;;
39968;SDS011;25648;47.808;19.004;2022-11-15T01:13:41;63.65;;;28.05;;
39968;SDS011;25648;47.808;19.004;2022-11-15T01:16:12;80.43;;;27.38;;
39968;SDS011;25648;47.808;19.004;2022-11-15T01:18:41;67.20;;;26.40;;
39968;SDS011;25648;47.808;19.004;2022-11-15T01:21:12;59.20;;;25.98;;
39968;SDS011;25648;47.808;19.004;2022-11-15T01:23:40;69.82;;;25.42;;
39968;SDS011;25648;47.808;19.004;2022-11-15T01:26:06;135.25;;;30.05;;
39968;SDS011;25648;47.808;19.004;2022-11-15T01:28:35;69.22;;;28.95;;
39968;SDS011;25648;47.808;19.004;2022-11-15T01:31:02;67.10;;;27.13;;
39968;SDS011;25648;47.808;19.004;2022-11-15T01:33:30;60.20;;;26.00;;
39968;SDS011;25648;47.808;19.004;2022-11-15T01:35:56;75.70;;;25.85;;
39968;SDS011;25648;47.808;19.004;2022-11-15T01:38:22;95.63;;;28.17;;
39968;SDS011;25648;47.808;19.004;2022-11-15T01:40:48;109.82;;;30.52;;
39968;SDS011;25648;47.808;19.004;2022-11-15T01:45:46;57.22;;;27.13;;
39968;SDS011;25648;47.808;19.004;2022-11-15T01:48:21;66.80;;;26.63;;
39968;SDS011;25648;47.808;19.004;2022-11-15T01:50:50;82.93;;;27.98;;
39968;SDS011;25648;47.808;19.004;2022-11-15T01:53:16;53.08;;;25.67;;
39968;SDS011;25648;47.808;19.004;2022-11-15T01:55:45;74.13;;;26.60;;
39968;SDS011;25648;47.808;19.004;2022-11-15T01:58:10;64.07;;;26.27;;
39968;SDS011;25648;47.808;19.004;2022-11-15T02:00:36;82.43;;;25.90;;
39968;SDS011;25648;47.808;19.004;2022-11-15T02:03:02;55.75;;;26.17;;
39968;SDS011;25648;47.808;19.004;2022-11-15T02:05:28;54.30;;;25.00;;
39968;SDS011;25648;47.808;19.004;2022-11-15T02:07:55;86.65;;;27.38;;
39968;SDS011;25648;47.808;19.004;2022-11-15T02:10:23;49.20;;;25.83;;
39968;SDS011;25648;47.808;19.004;2022-11-15T02:12:49;69.10;;;26.52;;
39968;SDS011;25648;47.808;19.004;2022-11-15T02:15:17;57.20;;;25.08;;
39968;SDS011;25648;47.808;19.004;2022-11-15T02:23:20;48.65;;;24.85;;
39968;SDS011;25648;47.808;19.004;2022-11-15T02:29:05;45.35;;;23.80;;
39968;SDS011;25648;47.808;19.004;2022-11-15T02:31:55;51.03;;;24.48;;
39968;SDS011;25648;47.808;19.004;2022-11-15T02:37:02;45.35;;;23.80;;
39968;SDS011;25648;47.808;19.004;2022-11-15T02:39:32;40.17;;;23.50;;
39968;SDS011;25648;47.808;19.004;2022-11-15T02:42:19;34.80;;;20.75;;
39968;SDS011;25648;47.808;19.004;2022-11-15T02:45:20;45.15;;;23.38;;
39968;SDS011;25648;47.808;19.004;2022-11-15T02:47:50;40.45;;;22.52;;
39968;SDS011;25648;47.808;19.004;2022-11-15T02:50:20;36.80;;;21.83;;
39968;SDS011;25648;47.808;19.004;2022-11-15T02:52:48;38.35;;;22.48;;
39968;SDS011;25648;47.808;19.004;2022-11-15T02:57:54;44.90;;;23.95;;
39968;SDS011;25648;47.808;19.004;2022-11-15T03:00:35;40.85;;;22.60;;
39968;SDS011;25648;47.808;19.004;2022-11-15T03:09:10;44.70;;;24.02;;
39968;SDS011;25648;47.808;19.004;2022-11-15T03:12:14;41.03;;;22.17;;
39968;SDS011;25648;47.808;19.004;2022-11-15T03:19:56;36.15;;;21.42;;
39968;SDS011;25648;47.808;19.004;2022-11-15T03:22:24;40.17;;;22.70;;
39968;SDS011;25648;47.808;19.004;2022-11-15T03:24:57;33.47;;;19.88;;
39968;SDS011;25648;47.808;19.004;2022-11-15T03:27:28;35.95;;;21.80;;
39968;SDS011;25648;47.808;19.004;2022-11-15T03:30:02;34.40;;;19.90;;
39968;SDS011;25648;47.808;19.004;2022-11-15T03:32:31;39.72;;;21.90;;
39968;SDS011;25648;47.808;19.004;2022-11-15T03:35:05;39.67;;;21.63;;
39968;SDS011;25648;47.808;19.004;2022-11-15T03:40:09;32.38;;;19.48;;
39968;SDS011;25648;47.808;19.004;2022-11-15T03:45:28;31.73;;;19.10;;
39968;SDS011;25648;47.808;19.004;2022-11-15T03:47:59;30.65;;;17.80;;
39968;SDS011;25648;47.808;19.004;2022-11-15T03:50:30;31.48;;;18.85;;
39968;SDS011;25648;47.808;19.004;2022-11-15T03:53:10;31.67;;;18.90;;
39968;SDS011;25648;47.808;19.004;2022-11-15T03:55:38;30.85;;;19.30;;
39968;SDS011;25648;47.808;19.004;2022-11-15T03:58:04;30.50;;;19.20;;
39968;SDS011;25648;47.808;19.004;2022-11-15T04:00:31;32.20;;;19.60;;
39968;SDS011;25648;47.808;19.004;2022-11-15T04:02:57;34.65;;;20.30;;
39968;SDS011;25648;47.808;19.004;2022-11-15T04:05:23;34.92;;;20.67;;
39968;SDS011;25648;47.808;19.004;2022-11-15T04:07:49;36.05;;;20.40;;
39968;SDS011;25648;47.808;19.004;2022-11-15T04:10:15;34.28;;;20.17;;
39968;SDS011;25648;47.808;19.004;2022-11-15T04:12:42;33.78;;;20.15;;
39968;SDS011;25648;47.808;19.004;2022-11-15T04:15:12;37.42;;;21.73;;
39968;SDS011;25648;47.808;19.004;2022-11-15T04:17:46;30.58;;;19.05;;
39968;SDS011;25648;47.808;19.004;2022-11-15T04:20:20;33.63;;;19.88;;
39968;SDS011;25648;47.808;19.004;2022-11-15T04:23:27;35.38;;;20.60;;
39968;SDS011;25648;47.808;19.004;2022-11-15T04:26:30;33.05;;;20.05;;
39968;SDS011;25648;47.808;19.004;2022-11-15T04:28:56;32.30;;;19.90;;
39968;SDS011;25648;47.808;19.004;2022-11-15T04:31:40;28.00;;;17.85;;
39968;SDS011;25648;47.808;19.004;2022-11-15T04:34:06;32.53;;;18.77;;
39968;SDS011;25648;47.808;19.004;2022-11-15T04:36:32;33.67;;;20.48;;
39968;SDS011;25648;47.808;19.004;2022-11-15T04:39:16;33.50;;;20.70;;
39968;SDS011;25648;47.808;19.004;2022-11-15T04:44:31;32.95;;;19.80;;
39968;SDS011;25648;47.808;19.004;2022-11-15T04:46:56;38.20;;;22.55;;
39968;SDS011;25648;47.808;19.004;2022-11-15T04:49:22;34.40;;;20.35;;
39968;SDS011;25648;47.808;19.004;2022-11-15T04:51:48;31.17;;;20.00;;
39968;SDS011;25648;47.808;19.004;2022-11-15T04:54:13;30.00;;;18.63;;
39968;SDS011;25648;47.808;19.004;2022-11-15T04:56:39;31.95;;;19.80;;
39968;SDS011;25648;47.808;19.004;2022-11-15T04:59:05;33.55;;;20.55;;
39968;SDS011;25648;47.808;19.004;2022-11-15T05:01:30;31.08;;;19.27;;
39968;SDS011;25648;47.808;19.004;2022-11-15T05:03:56;34.25;;;21.98;;
39968;SDS011;25648;47.808;19.004;2022-11-15T05:06:40;35.53;;;20.30;;
39968;SDS011;25648;47.808;19.004;2022-11-15T05:09:06;36.17;;;20.70;;
39968;SDS011;25648;47.808;19.004;2022-11-15T05:11:32;31.17;;;19.08;;
39968;SDS011;25648;47.808;19.004;2022-11-15T05:13:57;33.97;;;20.30;;
39968;SDS011;25648;47.808;19.004;2022-11-15T05:16:23;39.67;;;22.60;;
39968;SDS011;25648;47.808;19.004;2022-11-15T05:18:52;39.90;;;22.33;;
39968;SDS011;25648;47.808;19.004;2022-11-15T05:21:19;36.15;;;21.33;;
39968;SDS011;25648;47.808;19.004;2022-11-15T05:23:45;31.60;;;20.90;;
39968;SDS011;25648;47.808;19.004;2022-11-15T05:26:11;31.73;;;21.63;;
39968;SDS011;25648;47.808;19.004;2022-11-15T05:28:39;34.53;;;20.67;;
39968;SDS011;25648;47.808;19.004;2022-11-15T05:31:09;33.55;;;20.58;;
39968;SDS011;25648;47.808;19.004;2022-11-15T05:33:39;38.42;;;21.73;;
39968;SDS011;25648;47.808;19.004;2022-11-15T05:39:00;36.08;;;21.88;;
39968;SDS011;25648;47.808;19.004;2022-11-15T05:41:29;29.63;;;19.02;;
39968;SDS011;25648;47.808;19.004;2022-11-15T05:43:59;35.35;;;22.02;;
39968;SDS011;25648;47.808;19.004;2022-11-15T05:46:26;36.60;;;22.55;;
39968;SDS011;25648;47.808;19.004;2022-11-15T05:48:52;31.70;;;20.75;;
39968;SDS011;25648;47.808;19.004;2022-11-15T05:51:20;32.08;;;20.90;;
39968;SDS011;25648;47.808;19.004;2022-11-15T05:53:47;29.33;;;19.15;;
39968;SDS011;25648;47.808;19.004;2022-11-15T05:56:14;42.10;;;25.10;;
39968;SDS011;25648;47.808;19.004;2022-11-15T05:58:40;47.20;;;26.90;;
39968;SDS011;25648;47.808;19.004;2022-11-15T06:01:06;41.45;;;24.88;;
39968;SDS011;25648;47.808;19.004;2022-11-15T06:03:32;40.10;;;24.45;;
39968;SDS011;25648;47.808;19.004;2022-11-15T06:05:58;39.03;;;23.73;;
39968;SDS011;25648;47.808;19.004;2022-11-15T06:08:24;35.53;;;22.73;;
39968;SDS011;25648;47.808;19.004;2022-11-15T06:10:49;41.60;;;24.17;;
39968;SDS011;25648;47.808;19.004;2022-11-15T06:13:15;42.10;;;24.77;;
39968;SDS011;25648;47.808;19.004;2022-11-15T06:15:41;35.97;;;21.90;;
39968;SDS011;25648;47.808;19.004;2022-11-15T06:18:06;37.38;;;22.15;;
39968;SDS011;25648;47.808;19.004;2022-11-15T06:20:32;32.17;;;21.52;;
39968;SDS011;25648;47.808;19.004;2022-11-15T06:22:58;38.55;;;23.17;;
39968;SDS011;25648;47.808;19.004;2022-11-15T06:25:26;37.42;;;22.55;;
39968;SDS011;25648;47.808;19.004;2022-11-15T06:27:55;38.47;;;23.58;;
39968;SDS011;25648;47.808;19.004;2022-11-15T06:30:22;38.00;;;24.50;;
39968;SDS011;25648;47.808;19.004;2022-11-15T06:32:49;42.50;;;26.42;;
39968;SDS011;25648;47.808;19.004;2022-11-15T06:35:15;47.92;;;28.52;;
39968;SDS011;25648;47.808;19.004;2022-11-15T06:37:41;35.15;;;22.23;;
39968;SDS011;25648;47.808;19.004;2022-11-15T06:40:07;35.92;;;21.40;;
39968;SDS011;25648;47.808;19.004;2022-11-15T06:42:34;38.00;;;22.40;;
39968;SDS011;25648;47.808;19.004;2022-11-15T06:44:59;37.72;;;24.48;;
39968;SDS011;25648;47.808;19.004;2022-11-15T06:47:25;36.17;;;23.95;;
39968;SDS011;25648;47.808;19.004;2022-11-15T06:49:51;37.33;;;24.00;;
39968;SDS011;25648;47.808;19.004;2022-11-15T06:52:17;35.75;;;21.77;;
39968;SDS011;25648;47.808;19.004;2022-11-15T06:54:46;31.95;;;21.17;;
39968;SDS011;25648;47.808;19.004;2022-11-15T06:57:12;35.08;;;20.77;;
39968;SDS011;25648;47.808;19.004;2022-11-15T06:59:38;36.10;;;22.38;;
39968;SDS011;25648;47.808;19.004;2022-11-15T07:02:04;31.05;;;21.50;;
39968;SDS011;25648;47.808;19.004;2022-11-15T07:04:29;32.38;;;21.15;;
39968;SDS011;25648;47.808;19.004;2022-11-15T07:06:55;32.70;;;22.38;;
39968;SDS011;25648;47.808;19.004;2022-11-15T07:09:21;34.80;;;22.15;;
39968;SDS011;25648;47.808;19.004;2022-11-15T07:11:47;43.17;;;23.38;;
39968;SDS011;25648;47.808;19.004;2022-11-15T07:14:12;35.05;;;22.13;;
39968;SDS011;25648;47.808;19.004;2022-11-15T07:16:38;32.70;;;21.77;;
39968;SDS011;25648;47.808;19.004;2022-11-15T07:19:04;46.25;;;27.35;;
39968;SDS011;25648;47.808;19.004;2022-11-15T07:21:30;46.42;;;29.05;;
39968;SDS011;25648;47.808;19.004;2022-11-15T07:23:57;39.60;;;26.10;;
39968;SDS011;25648;47.808;19.004;2022-11-15T07:26:23;41.97;;;26.02;;
39968;SDS011;25648;47.808;19.004;2022-11-15T07:28:48;42.80;;;25.73;;
39968;SDS011;25648;47.808;19.004;2022-11-15T07:31:14;37.63;;;23.60;;
39968;SDS011;25648;47.808;19.004;2022-11-15T07:33:40;37.72;;;23.75;;
39968;SDS011;25648;47.808;19.004;2022-11-15T07:36:06;36.95;;;22.77;;
39968;SDS011;25648;47.808;19.004;2022-11-15T07:38:32;32.38;;;20.73;;
39968;SDS011;25648;47.808;19.004;2022-11-15T07:41:01;32.17;;;20.52;;
39968;SDS011;25648;47.808;19.004;2022-11-15T07:43:28;32.25;;;20.02;;
39968;SDS011;25648;47.808;19.004;2022-11-15T07:45:54;32.33;;;20.58;;
39968;SDS011;25648;47.808;19.004;2022-11-15T07:48:21;34.22;;;21.02;;
39968;SDS011;25648;47.808;19.004;2022-11-15T07:50:48;31.85;;;19.77;;
39968;SDS011;25648;47.808;19.004;2022-11-15T07:53:13;31.08;;;19.95;;
39968;SDS011;25648;47.808;19.004;2022-11-15T07:55:40;34.40;;;20.52;;
39968;SDS011;25648;47.808;19.004;2022-11-15T07:58:07;32.50;;;21.90;;
39968;SDS011;25648;47.808;19.004;2022-11-15T08:00:34;39.72;;;21.50;;
39968;SDS011;25648;47.808;19.004;2022-11-15T08:03:11;33.20;;;20.90;;
39968;SDS011;25648;47.808;19.004;2022-11-15T08:05:38;35.92;;;21.90;;
39968;SDS011;25648;47.808;19.004;2022-11-15T08:08:05;34.97;;;21.58;;
39968;SDS011;25648;47.808;19.004;2022-11-15T08:10:31;39.08;;;23.35;;
39968;SDS011;25648;47.808;19.004;2022-11-15T08:15:27;35.05;;;22.15;;
39968;SDS011;25648;47.808;19.004;2022-11-15T08:17:54;40.45;;;22.80;;
39968;SDS011;25648;47.808;19.004;2022-11-15T08:20:26;37.97;;;23.90;;
39968;SDS011;25648;47.808;19.004;2022-11-15T08:22:56;35.35;;;23.60;;
39968;SDS011;25648;47.808;19.004;2022-11-15T08:25:23;34.42;;;24.23;;
39968;SDS011;25648;47.808;19.004;2022-11-15T08:27:54;33.47;;;22.50;;
39968;SDS011;25648;47.808;19.004;2022-11-15T08:30:21;42.30;;;29.40;;
39968;SDS011;25648;47.808;19.004;2022-11-15T08:32:48;173.00;;;86.72;;
39968;SDS011;25648;47.808;19.004;2022-11-15T08:35:14;46.78;;;27.75;;
39968;SDS011;25648;47.808;19.004;2022-11-15T08:37:40;36.20;;;21.75;;
39968;SDS011;25648;47.808;19.004;2022-11-15T08:40:06;38.75;;;23.90;;
39968;SDS011;25648;47.808;19.004;2022-11-15T08:42:32;37.28;;;22.20;;
39968;SDS011;25648;47.808;19.004;2022-11-15T08:44:58;34.47;;;22.65;;
39968;SDS011;25648;47.808;19.004;2022-11-15T08:47:24;40.42;;;25.25;;
39968;SDS011;25648;47.808;19.004;2022-11-15T08:49:50;37.05;;;23.25;;
39968;SDS011;25648;47.808;19.004;2022-11-15T08:52:15;43.92;;;29.00;;
39968;SDS011;25648;47.808;19.004;2022-11-15T08:54:41;35.75;;;24.63;;
39968;SDS011;25648;47.808;19.004;2022-11-15T08:57:06;44.45;;;27.85;;
39968;SDS011;25648;47.808;19.004;2022-11-15T08:59:34;49.92;;;31.20;;
39968;SDS011;25648;47.808;19.004;2022-11-15T09:02:00;58.92;;;37.58;;
39968;SDS011;25648;47.808;19.004;2022-11-15T09:04:27;50.63;;;34.58;;
39968;SDS011;25648;47.808;19.004;2022-11-15T09:06:53;43.45;;;30.75;;
39968;SDS011;25648;47.808;19.004;2022-11-15T09:09:18;40.05;;;27.65;;
39968;SDS011;25648;47.808;19.004;2022-11-15T09:11:44;47.97;;;31.77;;
39968;SDS011;25648;47.808;19.004;2022-11-15T09:14:10;51.03;;;32.90;;
39968;SDS011;25648;47.808;19.004;2022-11-15T09:16:37;47.25;;;30.65;;
39968;SDS011;25648;47.808;19.004;2022-11-15T09:19:05;40.88;;;29.23;;
39968;SDS011;25648;47.808;19.004;2022-11-15T09:21:31;53.30;;;32.70;;
39968;SDS011;25648;47.808;19.004;2022-11-15T09:23:58;52.50;;;34.08;;
39968;SDS011;25648;47.808;19.004;2022-11-15T09:26:24;47.22;;;29.83;;
39968;SDS011;25648;47.808;19.004;2022-11-15T09:28:50;110.78;;;59.38;;
39968;SDS011;25648;47.808;19.004;2022-11-15T09:31:16;88.25;;;52.70;;
39968;SDS011;25648;47.808;19.004;2022-11-15T09:33:45;75.43;;;43.25;;
39968;SDS011;25648;47.808;19.004;2022-11-15T09:36:11;55.08;;;35.92;;
39968;SDS011;25648;47.808;19.004;2022-11-15T09:38:37;58.28;;;35.88;;
39968;SDS011;25648;47.808;19.004;2022-11-15T09:43:47;59.65;;;34.38;;
39968;SDS011;25648;47.808;19.004;2022-11-15T09:46:28;52.58;;;33.28;;
39968;SDS011;25648;47.808;19.004;2022-11-15T09:48:57;48.88;;;30.08;;
39968;SDS011;25648;47.808;19.004;2022-11-15T09:51:27;48.30;;;31.58;;
39968;SDS011;25648;47.808;19.004;2022-11-15T09:54:01;47.08;;;32.85;;
39968;SDS011;25648;47.808;19.004;2022-11-15T09:56:32;89.10;;;44.00;;
39968;SDS011;25648;47.808;19.004;2022-11-15T10:04:06;61.33;;;38.95;;
39968;SDS011;25648;47.808;19.004;2022-11-15T10:06:33;46.35;;;30.98;;
39968;SDS011;25648;47.808;19.004;2022-11-15T10:11:35;51.75;;;30.02;;
39968;SDS011;25648;47.808;19.004;2022-11-15T10:14:04;45.75;;;29.90;;
39968;SDS011;25648;47.808;19.004;2022-11-15T10:24:49;59.10;;;35.58;;
39968;SDS011;25648;47.808;19.004;2022-11-15T10:27:17;58.58;;;36.97;;
39968;SDS011;25648;47.808;19.004;2022-11-15T10:29:44;57.15;;;35.00;;
39968;SDS011;25648;47.808;19.004;2022-11-15T10:32:12;51.40;;;32.83;;
39968;SDS011;25648;47.808;19.004;2022-11-15T10:34:39;49.60;;;31.92;;
39968;SDS011;25648;47.808;19.004;2022-11-15T10:37:05;58.08;;;39.15;;
39968;SDS011;25648;47.808;19.004;2022-11-15T10:39:31;51.97;;;34.83;;
39968;SDS011;25648;47.808;19.004;2022-11-15T10:41:58;49.03;;;33.97;;
39968;SDS011;25648;47.808;19.004;2022-11-15T10:44:43;50.65;;;33.85;;
39968;SDS011;25648;47.808;19.004;2022-11-15T10:47:23;52.40;;;35.10;;
39968;SDS011;25648;47.808;19.004;2022-11-15T10:49:57;46.63;;;31.85;;
39968;SDS011;25648;47.808;19.004;2022-11-15T10:52:29;46.35;;;31.20;;
39968;SDS011;25648;47.808;19.004;2022-11-15T10:55:05;47.33;;;32.05;;
39968;SDS011;25648;47.808;19.004;2022-11-15T10:57:38;49.28;;;31.38;;
39968;SDS011;25648;47.808;19.004;2022-11-15T11:00:26;52.80;;;32.83;;
39968;SDS011;25648;47.808;19.004;2022-11-15T11:05:34;50.67;;;33.45;;
39968;SDS011;25648;47.808;19.004;2022-11-15T11:08:04;56.25;;;35.05;;
39968;SDS011;25648;47.808;19.004;2022-11-15T11:10:55;52.63;;;32.78;;
39968;SDS011;25648;47.808;19.004;2022-11-15T11:13:24;48.22;;;30.75;;
39968;SDS011;25648;47.808;19.004;2022-11-15T11:18:34;49.03;;;32.63;;
39968;SDS011;25648;47.808;19.004;2022-11-15T11:21:13;52.63;;;31.70;;
39968;SDS011;25648;47.808;19.004;2022-11-15T11:26:29;50.45;;;31.25;;
39968;SDS011;25648;47.808;19.004;2022-11-15T11:32:08;51.05;;;32.72;;
39968;SDS011;25648;47.808;19.004;2022-11-15T11:37:56;56.38;;;34.80;;
39968;SDS011;25648;47.808;19.004;2022-11-15T11:43:36;48.33;;;31.77;;
39968;SDS011;25648;47.808;19.004;2022-11-15T11:49:07;46.88;;;31.58;;
39968;SDS011;25648;47.808;19.004;2022-11-15T11:54:13;46.20;;;31.17;;
39968;SDS011;25648;47.808;19.004;2022-11-15T11:56:45;49.05;;;32.38;;
39968;SDS011;25648;47.808;19.004;2022-11-15T11:59:25;46.38;;;30.50;;
39968;SDS011;25648;47.808;19.004;2022-11-15T12:01:56;46.50;;;31.58;;
39968;SDS011;25648;47.808;19.004;2022-11-15T12:04:30;52.03;;;33.65;;
39968;SDS011;25648;47.808;19.004;2022-11-15T12:07:08;47.50;;;31.40;;
39968;SDS011;25648;47.808;19.004;2022-11-15T12:10:01;48.28;;;31.48;;
39968;SDS011;25648;47.808;19.004;2022-11-15T12:12:46;49.67;;;32.40;;
39968;SDS011;25648;47.808;19.004;2022-11-15T12:15:17;49.08;;;32.90;;
39968;SDS011;25648;47.808;19.004;2022-11-15T12:17:47;47.83;;;31.75;;
39968;SDS011;25648;47.808;19.004;2022-11-15T12:20:14;50.13;;;32.80;;
39968;SDS011;25648;47.808;19.004;2022-11-15T12:25:52;45.70;;;31.88;;
39968;SDS011;25648;47.808;19.004;2022-11-15T12:31:35;64.70;;;38.35;;
39968;SDS011;25648;47.808;19.004;2022-11-15T12:34:04;109.10;;;58.53;;
39968;SDS011;25648;47.808;19.004;2022-11-15T12:36:44;81.43;;;48.40;;
39968;SDS011;25648;47.808;19.004;2022-11-15T12:39:11;132.30;;;67.20;;
39968;SDS011;25648;47.808;19.004;2022-11-15T12:41:38;95.47;;;50.17;;
39968;SDS011;25648;47.808;19.004;2022-11-15T12:44:12;88.00;;;50.00;;
39968;SDS011;25648;47.808;19.004;2022-11-15T12:47:01;64.30;;;40.63;;
39968;SDS011;25648;47.808;19.004;2022-11-15T13:17:38;47.88;;;34.10;;
39968;SDS011;25648;47.808;19.004;2022-11-15T13:27:45;53.35;;;35.30;;
39968;SDS011;25648;47.808;19.004;2022-11-15T13:30:26;54.75;;;33.35;;
39968;SDS011;25648;47.808;19.004;2022-11-15T13:32:54;47.28;;;32.83;;
39968;SDS011;25648;47.808;19.004;2022-11-15T13:35:24;47.75;;;31.85;;
39968;SDS011;25648;47.808;19.004;2022-11-15T13:37:52;61.88;;;39.22;;
39968;SDS011;25648;47.808;19.004;2022-11-15T13:40:21;63.97;;;39.70;;
39968;SDS011;25648;47.808;19.004;2022-11-15T13:42:59;54.83;;;35.90;;
39968;SDS011;25648;47.808;19.004;2022-11-15T13:45:38;50.13;;;33.55;;
39968;SDS011;25648;47.808;19.004;2022-11-15T13:48:04;50.33;;;33.10;;
39968;SDS011;25648;47.808;19.004;2022-11-15T13:50:33;53.33;;;34.70;;
39968;SDS011;25648;47.808;19.004;2022-11-15T13:53:02;48.63;;;33.25;;
39968;SDS011;25648;47.808;19.004;2022-11-15T13:55:29;54.67;;;35.92;;
39968;SDS011;25648;47.808;19.004;2022-11-15T13:58:01;52.28;;;35.95;;
39968;SDS011;25648;47.808;19.004;2022-11-15T14:00:36;51.15;;;35.25;;
39968;SDS011;25648;47.808;19.004;2022-11-15T14:03:05;53.97;;;35.55;;
39968;SDS011;25648;47.808;19.004;2022-11-15T14:05:43;54.33;;;36.43;;
39968;SDS011;25648;47.808;19.004;2022-11-15T14:08:26;57.65;;;34.88;;
39968;SDS011;25648;47.808;19.004;2022-11-15T14:13:39;57.42;;;36.63;;
39968;SDS011;25648;47.808;19.004;2022-11-15T14:16:15;51.80;;;34.00;;
39968;SDS011;25648;47.808;19.004;2022-11-15T14:21:14;60.85;;;37.13;;
39968;SDS011;25648;47.808;19.004;2022-11-15T14:23:41;50.22;;;34.30;;
39968;SDS011;25648;47.808;19.004;2022-11-15T14:26:10;48.08;;;32.92;;
39968;SDS011;25648;47.808;19.004;2022-11-15T14:28:57;54.20;;;33.17;;
39968;SDS011;25648;47.808;19.004;2022-11-15T14:31:49;48.97;;;33.08;;
39968;SDS011;25648;47.808;19.004;2022-11-15T14:34:15;53.10;;;33.13;;
39968;SDS011;25648;47.808;19.004;2022-11-15T14:36:41;57.95;;;36.85;;
39968;SDS011;25648;47.808;19.004;2022-11-15T14:39:07;53.80;;;34.28;;
39968;SDS011;25648;47.808;19.004;2022-11-15T14:41:36;51.88;;;33.65;;
39968;SDS011;25648;47.808;19.004;2022-11-15T14:44:04;51.97;;;33.47;;
39968;SDS011;25648;47.808;19.004;2022-11-15T14:46:31;68.15;;;37.15;;
39968;SDS011;25648;47.808;19.004;2022-11-15T14:48:57;70.60;;;38.08;;
39968;SDS011;25648;47.808;19.004;2022-11-15T14:51:23;66.28;;;37.58;;
39968;SDS011;25648;47.808;19.004;2022-11-15T14:53:49;53.00;;;34.05;;
39968;SDS011;25648;47.808;19.004;2022-11-15T14:56:17;52.00;;;32.90;;
39968;SDS011;25648;47.808;19.004;2022-11-15T14:58:44;58.10;;;35.38;;
39968;SDS011;25648;47.808;19.004;2022-11-15T15:01:17;64.72;;;39.30;;
39968;SDS011;25648;47.808;19.004;2022-11-15T15:03:46;90.13;;;46.28;;
39968;SDS011;25648;47.808;19.004;2022-11-15T15:06:12;82.28;;;44.47;;
39968;SDS011;25648;47.808;19.004;2022-11-15T15:08:41;68.53;;;40.40;;
39968;SDS011;25648;47.808;19.004;2022-11-15T15:11:11;61.55;;;39.75;;
39968;SDS011;25648;47.808;19.004;2022-11-15T15:13:41;54.33;;;33.13;;
39968;SDS011;25648;47.808;19.004;2022-11-15T15:16:07;57.10;;;37.13;;
39968;SDS011;25648;47.808;19.004;2022-11-15T15:18:33;56.97;;;35.05;;
39968;SDS011;25648;47.808;19.004;2022-11-15T15:20:59;53.85;;;35.28;;
39968;SDS011;25648;47.808;19.004;2022-11-15T15:23:27;60.20;;;38.72;;
39968;SDS011;25648;47.808;19.004;2022-11-15T15:25:56;64.53;;;39.63;;
39968;SDS011;25648;47.808;19.004;2022-11-15T15:28:22;56.45;;;34.90;;
39968;SDS011;25648;47.808;19.004;2022-11-15T15:30:47;61.17;;;36.90;;
39968;SDS011;25648;47.808;19.004;2022-11-15T15:33:14;60.85;;;38.30;;
39968;SDS011;25648;47.808;19.004;2022-11-15T15:35:40;68.35;;;39.95;;
39968;SDS011;25648;47.808;19.004;2022-11-15T15:38:08;58.88;;;35.75;;
39968;SDS011;25648;47.808;19.004;2022-11-15T15:40:37;56.63;;;34.80;;
39968;SDS011;25648;47.808;19.004;2022-11-15T15:43:03;62.63;;;40.83;;
39968;SDS011;25648;47.808;19.004;2022-11-15T15:45:36;59.78;;;36.92;;
39968;SDS011;25648;47.808;19.004;2022-11-15T15:48:04;51.90;;;33.17;;
39968;SDS011;25648;47.808;19.004;2022-11-15T15:50:33;55.88;;;35.47;;
39968;SDS011;25648;47.808;19.004;2022-11-15T15:53:01;54.38;;;34.50;;
39968;SDS011;25648;47.808;19.004;2022-11-15T15:55:28;53.78;;;34.05;;
39968;SDS011;25648;47.808;19.004;2022-11-15T15:57:54;58.38;;;36.15;;
39968;SDS011;25648;47.808;19.004;2022-11-15T16:00:21;63.03;;;37.47;;
39968;SDS011;25648;47.808;19.004;2022-11-15T16:02:48;78.50;;;58.28;;
39968;SDS011;25648;47.808;19.004;2022-11-15T16:05:14;69.38;;;38.33;;
39968;SDS011;25648;47.808;19.004;2022-11-15T16:07:40;51.05;;;32.25;;
39968;SDS011;25648;47.808;19.004;2022-11-15T16:10:16;53.42;;;32.97;;
39968;SDS011;25648;47.808;19.004;2022-11-15T16:12:42;58.22;;;35.25;;
39968;SDS011;25648;47.808;19.004;2022-11-15T16:15:08;72.78;;;53.90;;
39968;SDS011;25648;47.808;19.004;2022-11-15T16:17:35;55.33;;;33.67;;
39968;SDS011;25648;47.808;19.004;2022-11-15T16:20:05;51.15;;;33.13;;
39968;SDS011;25648;47.808;19.004;2022-11-15T16:22:31;55.20;;;33.75;;
39968;SDS011;25648;47.808;19.004;2022-11-15T16:24:56;52.10;;;33.83;;
39968;SDS011;25648;47.808;19.004;2022-11-15T16:27:22;44.38;;;28.92;;
39968;SDS011;25648;47.808;19.004;2022-11-15T16:29:48;50.65;;;32.30;;